Quonset State Airport North Kingstown US
ICAO: KOQU
IATA: OQU
Category: Medium
Scheduled Services: No

Elevation: 18 ft
TransAlt. 18000 ft.

Airport Communications:
PROVIDENCE APP/DEP:135.4
CTAF:126.35
GND:134.5
ANG OPS:38.33
ARNG OPS:38.95
BRIDGEPORT RDO:122.3
TWR:126.35
UNICOM:122.95

KOQU Zoom In..

If you have problems with the map follow the link
https://www.worldairports.se/pages/airport.php?
ICAO=KOQU

Runways:

(A) RW 05 length 4000 ft width 75 ft
---- / hdg 49

(B) RW 16 length 7504 ft width 150 ft
ILS 109.50 / hdg 160

(C) RW 23 length 4000 ft width 75 ft
---- / hdg 229

(D) RW 34 length 7504 ft width 150 ft
---- / hdg 340

Location; KOQU
Day. 12 / Time. 03.50 Zulu
* Altimeter: 30.35
* Temperature: -01° c. -30.2°f.
* Wind from: 280° Speed 06 kn.
Dewpoint: -05° c.
Visibility: 10 Statute Miles.
Clouds: Clear (manual report).

KOQU 120350Z 28006KT 10SM SKC M01/M05 A3035 RMK LAST


Wind From 280°
Speed 06 kn.

 
 
jpsmedia worldairports.se 2019   terms of use